sensor_id;sensor_type;location;lat;lon;timestamp;pressure;altitude;pressure_sealevel;temperature;humidity
83563;BME280;73535;52.500;13.482;2024-01-15T00:00:07;98967.06;;;3.38;76.77
83563;BME280;73535;52.500;13.482;2024-01-15T00:02:33;98963.75;;;3.36;76.48
83563;BME280;73535;52.500;13.482;2024-01-15T00:04:59;98961.03;;;3.37;76.48
83563;BME280;73535;52.500;13.482;2024-01-15T00:07:24;98956.88;;;3.35;76.32
83563;BME280;73535;52.500;13.482;2024-01-15T00:09:49;98957.19;;;3.30;76.25
83563;BME280;73535;52.500;13.482;2024-01-15T00:12:14;98941.41;;;3.33;76.77
83563;BME280;73535;52.500;13.482;2024-01-15T00:14:40;98943.78;;;3.24;77.37
83563;BME280;73535;52.500;13.482;2024-01-15T00:17:05;98939.63;;;3.21;77.62
83563;BME280;73535;52.500;13.482;2024-01-15T00:19:30;98930.50;;;3.16;77.96
83563;BME280;73535;52.500;13.482;2024-01-15T00:21:57;98934.53;;;3.20;77.30
83563;BME280;73535;52.500;13.482;2024-01-15T00:24:22;98927.97;;;3.14;77.59
83563;BME280;73535;52.500;13.482;2024-01-15T00:26:47;98920.13;;;3.16;77.69
83563;BME280;73535;52.500;13.482;2024-01-15T00:29:13;98911.50;;;3.15;77.66
83563;BME280;73535;52.500;13.482;2024-01-15T00:31:38;98906.94;;;3.19;77.73
83563;BME280;73535;52.500;13.482;2024-01-15T00:34:03;98906.19;;;3.17;77.74
83563;BME280;73535;52.500;13.482;2024-01-15T00:36:28;98901.00;;;3.17;77.54
83563;BME280;73535;52.500;13.482;2024-01-15T00:38:54;98896.63;;;3.17;77.36
83563;BME280;73535;52.500;13.482;2024-01-15T00:41:19;98888.97;;;3.16;77.29
83563;BME280;73535;52.500;13.482;2024-01-15T00:43:45;98888.22;;;3.14;77.27
83563;BME280;73535;52.500;13.482;2024-01-15T00:46:11;98888.13;;;3.15;77.09
83563;BME280;73535;52.500;13.482;2024-01-15T00:48:36;98880.22;;;3.17;76.75
83563;BME280;73535;52.500;13.482;2024-01-15T00:51:02;98880.56;;;3.12;76.67
83563;BME280;73535;52.500;13.482;2024-01-15T00:53:27;98880.44;;;3.14;76.83
83563;BME280;73535;52.500;13.482;2024-01-15T00:55:53;98869.63;;;3.20;76.92
83563;BME280;73535;52.500;13.482;2024-01-15T00:58:18;98868.81;;;3.19;76.90
83563;BME280;73535;52.500;13.482;2024-01-15T01:00:44;98866.53;;;3.15;76.78
83563;BME280;73535;52.500;13.482;2024-01-15T01:03:09;98876.50;;;3.21;76.28
83563;BME280;73535;52.500;13.482;2024-01-15T01:05:34;98861.97;;;3.18;76.70
83563;BME280;73535;52.500;13.482;2024-01-15T01:07:59;98859.59;;;3.15;76.90
83563;BME280;73535;52.500;13.482;2024-01-15T01:10:25;98865.28;;;3.08;77.47
83563;BME280;73535;52.500;13.482;2024-01-15T01:12:50;98866.94;;;3.09;77.58
83563;BME280;73535;52.500;13.482;2024-01-15T01:15:15;98861.53;;;3.12;77.43
83563;BME280;73535;52.500;13.482;2024-01-15T01:17:40;98859.88;;;3.11;77.58
83563;BME280;73535;52.500;13.482;2024-01-15T01:20:06;98863.44;;;3.10;77.75
83563;BME280;73535;52.500;13.482;2024-01-15T01:22:33;98858.72;;;3.02;78.40
83563;BME280;73535;52.500;13.482;2024-01-15T01:24:58;98861.66;;;2.98;78.42
83563;BME280;73535;52.500;13.482;2024-01-15T01:27:23;98878.88;;;2.86;79.07
83563;BME280;73535;52.500;13.482;2024-01-15T01:29:49;98868.38;;;2.88;79.23
83563;BME280;73535;52.500;13.482;2024-01-15T01:32:14;98862.97;;;2.91;79.23
83563;BME280;73535;52.500;13.482;2024-01-15T01:34:40;98870.78;;;2.91;78.79
83563;BME280;73535;52.500;13.482;2024-01-15T01:37:09;98876.06;;;2.89;79.03
83563;BME280;73535;52.500;13.482;2024-01-15T01:39:34;98867.13;;;2.80;79.43
83563;BME280;73535;52.500;13.482;2024-01-15T01:42:00;98860.28;;;2.79;79.46
83563;BME280;73535;52.500;13.482;2024-01-15T01:44:25;98868.06;;;2.79;79.76
83563;BME280;73535;52.500;13.482;2024-01-15T01:46:50;98866.50;;;2.77;79.74
83563;BME280;73535;52.500;13.482;2024-01-15T01:49:16;98852.91;;;2.73;79.92
83563;BME280;73535;52.500;13.482;2024-01-15T01:51:42;98861.72;;;2.58;80.39
83563;BME280;73535;52.500;13.482;2024-01-15T01:54:08;98863.56;;;2.56;80.78
83563;BME280;73535;52.500;13.482;2024-01-15T01:56:34;98863.16;;;2.62;80.80
83563;BME280;73535;52.500;13.482;2024-01-15T01:59:00;98864.19;;;2.60;81.21
83563;BME280;73535;52.500;13.482;2024-01-15T02:01:26;98858.38;;;2.56;81.35
83563;BME280;73535;52.500;13.482;2024-01-15T02:03:51;98866.28;;;2.55;81.46
83563;BME280;73535;52.500;13.482;2024-01-15T02:06:16;98861.91;;;2.55;81.09
83563;BME280;73535;52.500;13.482;2024-01-15T02:08:43;98865.03;;;2.60;80.64
83563;BME280;73535;52.500;13.482;2024-01-15T02:11:08;98854.13;;;2.55;80.44
83563;BME280;73535;52.500;13.482;2024-01-15T02:13:34;98850.19;;;2.62;80.03
83563;BME280;73535;52.500;13.482;2024-01-15T02:15:59;98853.81;;;2.60;80.22
83563;BME280;73535;52.500;13.482;2024-01-15T02:18:24;98840.13;;;2.58;79.94
83563;BME280;73535;52.500;13.482;2024-01-15T02:20:49;98844.09;;;2.63;79.63
83563;BME280;73535;52.500;13.482;2024-01-15T02:23:15;98855.31;;;2.64;79.47
83563;BME280;73535;52.500;13.482;2024-01-15T02:25:45;98848.53;;;2.61;78.67
83563;BME280;73535;52.500;13.482;2024-01-15T02:28:15;98853.44;;;2.66;78.30
83563;BME280;73535;52.500;13.482;2024-01-15T02:30:41;98853.44;;;2.66;78.77
83563;BME280;73535;52.500;13.482;2024-01-15T02:33:08;98842.13;;;2.67;78.39
83563;BME280;73535;52.500;13.482;2024-01-15T02:35:34;98851.56;;;2.68;78.00
83563;BME280;73535;52.500;13.482;2024-01-15T02:38:02;98852.31;;;2.70;77.78
83563;BME280;73535;52.500;13.482;2024-01-15T02:40:27;98844.41;;;2.71;77.49
83563;BME280;73535;52.500;13.482;2024-01-15T02:42:53;98836.00;;;2.68;77.42
83563;BME280;73535;52.500;13.482;2024-01-15T02:45:18;98828.63;;;2.74;77.68
83563;BME280;73535;52.500;13.482;2024-01-15T02:47:43;98821.69;;;2.75;76.74
83563;BME280;73535;52.500;13.482;2024-01-15T02:50:08;98821.69;;;2.75;76.80
83563;BME280;73535;52.500;13.482;2024-01-15T02:52:34;98831.22;;;2.74;76.89
83563;BME280;73535;52.500;13.482;2024-01-15T02:54:59;98820.03;;;2.74;76.83
83563;BME280;73535;52.500;13.482;2024-01-15T02:57:24;98825.94;;;2.76;76.38
83563;BME280;73535;52.500;13.482;2024-01-15T02:59:49;98825.13;;;2.75;76.58
83563;BME280;73535;52.500;13.482;2024-01-15T03:02:15;98815.47;;;2.77;76.64
83563;BME280;73535;52.500;13.482;2024-01-15T03:04:43;98829.34;;;2.76;76.37
83563;BME280;73535;52.500;13.482;2024-01-15T03:07:09;98812.75;;;2.79;76.25
83563;BME280;73535;52.500;13.482;2024-01-15T03:09:34;98813.78;;;2.76;76.25
83563;BME280;73535;52.500;13.482;2024-01-15T03:11:59;98817.53;;;2.72;76.26
83563;BME280;73535;52.500;13.482;2024-01-15T03:14:24;98805.81;;;2.79;76.19
83563;BME280;73535;52.500;13.482;2024-01-15T03:16:51;98800.09;;;2.62;76.25
83563;BME280;73535;52.500;13.482;2024-01-15T03:19:16;98813.50;;;2.68;75.77
83563;BME280;73535;52.500;13.482;2024-01-15T03:21:41;98817.53;;;2.72;75.62
83563;BME280;73535;52.500;13.482;2024-01-15T03:24:07;98809.56;;;2.75;75.41
83563;BME280;73535;52.500;13.482;2024-01-15T03:26:32;98814.53;;;2.78;75.18
83563;BME280;73535;52.500;13.482;2024-01-15T03:28:57;98821.16;;;2.82;74.99
83563;BME280;73535;52.500;13.482;2024-01-15T03:31:22;98804.88;;;2.80;75.43
83563;BME280;73535;52.500;13.482;2024-01-15T03:33:47;98818.78;;;2.79;75.25
83563;BME280;73535;52.500;13.482;2024-01-15T03:36:13;98804.88;;;2.80;75.76
83563;BME280;73535;52.500;13.482;2024-01-15T03:38:41;98806.75;;;2.78;75.14
83563;BME280;73535;52.500;13.482;2024-01-15T03:41:07;98803.22;;;2.79;75.53
83563;BME280;73535;52.500;13.482;2024-01-15T03:43:32;98811.13;;;2.78;75.16
83563;BME280;73535;52.500;13.482;2024-01-15T03:45:58;98797.31;;;2.77;74.95
83563;BME280;73535;52.500;13.482;2024-01-15T03:48:23;98793.47;;;2.83;75.03
83563;BME280;73535;52.500;13.482;2024-01-15T03:50:48;98792.44;;;2.85;74.88
83563;BME280;73535;52.500;13.482;2024-01-15T03:53:13;98788.06;;;2.86;74.08
83563;BME280;73535;52.500;13.482;2024-01-15T03:55:38;98787.97;;;2.88;74.15
83563;BME280;73535;52.500;13.482;2024-01-15T03:58:04;98784.34;;;2.90;74.44
83563;BME280;73535;52.500;13.482;2024-01-15T04:00:29;98789.13;;;2.83;74.26
83563;BME280;73535;52.500;13.482;2024-01-15T04:02:54;98778.41;;;2.88;74.28
83563;BME280;73535;52.500;13.482;2024-01-15T04:05:19;98763.91;;;2.85;74.44
83563;BME280;73535;52.500;13.482;2024-01-15T04:07:45;98759.34;;;2.89;73.72
83563;BME280;73535;52.500;13.482;2024-01-15T04:10:10;98758.50;;;2.89;73.98
83563;BME280;73535;52.500;13.482;2024-01-15T04:12:35;98744.47;;;2.91;74.36
83563;BME280;73535;52.500;13.482;2024-01-15T04:15:00;98743.06;;;2.87;74.39
83563;BME280;73535;52.500;13.482;2024-01-15T04:17:27;98740.84;;;2.94;74.05
83563;BME280;73535;52.500;13.482;2024-01-15T04:19:52;98728.81;;;2.93;74.04
83563;BME280;73535;52.500;13.482;2024-01-15T04:22:17;98737.75;;;2.89;73.92
83563;BME280;73535;52.500;13.482;2024-01-15T04:24:42;98739.19;;;2.93;73.46
83563;BME280;73535;52.500;13.482;2024-01-15T04:27:08;98747.56;;;2.96;73.24
83563;BME280;73535;52.500;13.482;2024-01-15T04:29:33;98730.59;;;2.92;73.51
83563;BME280;73535;52.500;13.482;2024-01-15T04:31:58;98740.75;;;2.95;73.73
83563;BME280;73535;52.500;13.482;2024-01-15T04:34:23;98730.38;;;2.95;73.39
83563;BME280;73535;52.500;13.482;2024-01-15T04:36:49;98751.22;;;2.94;73.00
83563;BME280;73535;52.500;13.482;2024-01-15T04:39:14;98751.97;;;2.96;73.16
83563;BME280;73535;52.500;13.482;2024-01-15T04:41:39;98733.59;;;2.99;72.88
83563;BME280;73535;52.500;13.482;2024-01-15T04:44:04;98744.69;;;3.01;72.92
83563;BME280;73535;52.500;13.482;2024-01-15T04:46:30;98714.47;;;3.00;72.90
83563;BME280;73535;52.500;13.482;2024-01-15T04:48:55;98732.63;;;3.00;72.99
83563;BME280;73535;52.500;13.482;2024-01-15T04:51:20;98729.31;;;2.98;73.01
83563;BME280;73535;52.500;13.482;2024-01-15T04:53:45;98725.38;;;3.05;72.48
83563;BME280;73535;52.500;13.482;2024-01-15T04:56:11;98716.84;;;3.03;72.69
83563;BME280;73535;52.500;13.482;2024-01-15T04:58:36;98722.16;;;3.01;72.74
83563;BME280;73535;52.500;13.482;2024-01-15T05:01:01;98714.47;;;3.00;72.30
83563;BME280;73535;52.500;13.482;2024-01-15T05:03:26;98713.53;;;3.01;72.06
83563;BME280;73535;52.500;13.482;2024-01-15T05:05:51;98727.44;;;3.00;72.11
83563;BME280;73535;52.500;13.482;2024-01-15T05:08:17;98720.41;;;3.02;72.01
83563;BME280;73535;52.500;13.482;2024-01-15T05:10:42;98718.53;;;3.04;72.09
83563;BME280;73535;52.500;13.482;2024-01-15T05:13:07;98718.41;;;3.05;71.98
83563;BME280;73535;52.500;13.482;2024-01-15T05:15:32;98725.13;;;3.08;71.28
83563;BME280;73535;52.500;13.482;2024-01-15T05:17:58;98715.38;;;3.11;71.60
83563;BME280;73535;52.500;13.482;2024-01-15T05:20:23;98711.88;;;3.12;71.85
83563;BME280;73535;52.500;13.482;2024-01-15T05:22:48;98726.72;;;3.10;71.99
83563;BME280;73535;52.500;13.482;2024-01-15T05:25:13;98717.34;;;3.08;72.51
83563;BME280;73535;52.500;13.482;2024-01-15T05:27:39;98727.66;;;3.09;72.75
83563;BME280;73535;52.500;13.482;2024-01-15T05:30:04;98729.41;;;3.09;73.04
83563;BME280;73535;52.500;13.482;2024-01-15T05:32:30;98712.69;;;3.13;72.58
83563;BME280;73535;52.500;13.482;2024-01-15T05:34:55;98709.81;;;3.05;73.16
83563;BME280;73535;52.500;13.482;2024-01-15T05:37:20;98704.16;;;3.11;72.92
83563;BME280;73535;52.500;13.482;2024-01-15T05:39:45;98698.75;;;3.14;72.56
83563;BME280;73535;52.500;13.482;2024-01-15T05:42:10;98695.25;;;3.15;72.61
83563;BME280;73535;52.500;13.482;2024-01-15T05:44:36;98690.88;;;3.15;72.26
83563;BME280;73535;52.500;13.482;2024-01-15T05:47:01;98694.31;;;3.16;72.45
83563;BME280;73535;52.500;13.482;2024-01-15T05:49:26;98696.06;;;3.15;72.30
83563;BME280;73535;52.500;13.482;2024-01-15T05:51:51;98690.06;;;3.15;72.59
83563;BME280;73535;52.500;13.482;2024-01-15T05:54:18;98704.16;;;3.11;72.44
83563;BME280;73535;52.500;13.482;2024-01-15T05:56:44;98694.63;;;3.11;72.22
83563;BME280;73535;52.500;13.482;2024-01-15T05:59:10;98691.94;;;3.13;72.56
83563;BME280;73535;52.500;13.482;2024-01-15T06:01:35;98698.97;;;3.11;73.12
83563;BME280;73535;52.500;13.482;2024-01-15T06:04:00;98695.78;;;3.07;74.19
83563;BME280;73535;52.500;13.482;2024-01-15T06:06:25;98700.78;;;3.10;74.52
83563;BME280;73535;52.500;13.482;2024-01-15T06:08:51;98702.03;;;3.05;74.89
83563;BME280;73535;52.500;13.482;2024-01-15T06:11:16;98704.84;;;3.02;74.83
83563;BME280;73535;52.500;13.482;2024-01-15T06:13:41;98705.56;;;3.04;75.04
83563;BME280;73535;52.500;13.482;2024-01-15T06:16:14;98712.41;;;3.05;74.44
83563;BME280;73535;52.500;13.482;2024-01-15T06:18:40;98704.22;;;2.98;74.36
83563;BME280;73535;52.500;13.482;2024-01-15T06:21:05;98709.81;;;3.05;74.31
83563;BME280;73535;52.500;13.482;2024-01-15T06:23:30;98699.09;;;3.09;74.34
83563;BME280;73535;52.500;13.482;2024-01-15T06:25:55;98700.97;;;3.07;73.92
83563;BME280;73535;52.500;13.482;2024-01-15T06:28:20;98686.63;;;3.14;73.17
83563;BME280;73535;52.500;13.482;2024-01-15T06:30:46;98695.78;;;3.07;73.12
83563;BME280;73535;52.500;13.482;2024-01-15T06:33:11;98698.06;;;3.12;73.10
83563;BME280;73535;52.500;13.482;2024-01-15T06:35:36;98685.47;;;3.18;72.48
83563;BME280;73535;52.500;13.482;2024-01-15T06:38:01;98707.50;;;3.13;73.25
83563;BME280;73535;52.500;13.482;2024-01-15T06:40:27;98696.28;;;3.12;73.95
83563;BME280;73535;52.500;13.482;2024-01-15T06:42:52;98699.59;;;3.14;74.15
83563;BME280;73535;52.500;13.482;2024-01-15T06:45:17;98702.09;;;3.16;74.33
83563;BME280;73535;52.500;13.482;2024-01-15T06:47:42;98697.97;;;3.13;73.99
83563;BME280;73535;52.500;13.482;2024-01-15T06:50:08;98694.31;;;3.16;74.07
83563;BME280;73535;52.500;13.482;2024-01-15T06:52:33;98710.81;;;3.15;74.40
83563;BME280;73535;52.500;13.482;2024-01-15T06:54:58;98704.06;;;3.12;74.33
83563;BME280;73535;52.500;13.482;2024-01-15T06:57:23;98710.09;;;3.13;73.88
83563;BME280;73535;52.500;13.482;2024-01-15T06:59:49;98710.81;;;3.15;74.00
83563;BME280;73535;52.500;13.482;2024-01-15T07:02:14;98709.13;;;3.14;74.15
83563;BME280;73535;52.500;13.482;2024-01-15T07:04:39;98706.34;;;3.17;73.75
83563;BME280;73535;52.500;13.482;2024-01-15T07:07:04;98700.22;;;3.18;73.66
83563;BME280;73535;52.500;13.482;2024-01-15T07:09:30;98709.56;;;3.20;73.12
83563;BME280;73535;52.500;13.482;2024-01-15T07:11:55;98708.00;;;3.18;73.14
83563;BME280;73535;52.500;13.482;2024-01-15T07:14:22;98708.50;;;3.23;73.24
83563;BME280;73535;52.500;13.482;2024-01-15T07:16:47;98715.78;;;3.18;73.20
83563;BME280;73535;52.500;13.482;2024-01-15T07:19:13;98718.16;;;3.21;72.86
83563;BME280;73535;52.500;13.482;2024-01-15T07:21:38;98714.66;;;3.22;72.12
83563;BME280;73535;52.500;13.482;2024-01-15T07:24:05;98734.25;;;3.26;72.04
83563;BME280;73535;52.500;13.482;2024-01-15T07:26:30;98723.84;;;3.26;72.47
83563;BME280;73535;52.500;13.482;2024-01-15T07:28:55;98730.09;;;3.23;72.33
83563;BME280;73535;52.500;13.482;2024-01-15T07:31:20;98731.66;;;3.26;72.05
83563;BME280;73535;52.500;13.482;2024-01-15T07:33:46;98737.47;;;3.29;72.19
83563;BME280;73535;52.500;13.482;2024-01-15T07:36:11;98749.38;;;3.32;71.83
83563;BME280;73535;52.500;13.482;2024-01-15T07:38:37;98751.97;;;3.32;71.93
83563;BME280;73535;52.500;13.482;2024-01-15T07:41:02;98753.44;;;3.36;71.47
83563;BME280;73535;52.500;13.482;2024-01-15T07:43:28;98752.09;;;3.30;71.61
83563;BME280;73535;52.500;13.482;2024-01-15T07:45:54;98757.81;;;3.23;71.77
83563;BME280;73535;52.500;13.482;2024-01-15T07:48:19;98759.78;;;3.19;71.93
83563;BME280;73535;52.500;13.482;2024-01-15T07:50:45;98758.03;;;3.20;71.84
83563;BME280;73535;52.500;13.482;2024-01-15T07:53:10;98761.03;;;3.14;71.65
83563;BME280;73535;52.500;13.482;2024-01-15T07:55:36;98758.25;;;3.17;71.78
83563;BME280;73535;52.500;13.482;2024-01-15T07:58:01;98757.94;;;3.21;71.81
83563;BME280;73535;52.500;13.482;2024-01-15T08:00:27;98760.81;;;3.29;71.67
83563;BME280;73535;52.500;13.482;2024-01-15T08:02:53;98771.41;;;3.26;71.90
83563;BME280;73535;52.500;13.482;2024-01-15T08:05:18;98777.44;;;3.27;72.03
83563;BME280;73535;52.500;13.482;2024-01-15T08:07:44;98768.50;;;3.31;71.80
83563;BME280;73535;52.500;13.482;2024-01-15T08:10:09;98757.19;;;3.32;71.57
83563;BME280;73535;52.500;13.482;2024-01-15T08:12:34;98750.84;;;3.36;71.17
83563;BME280;73535;52.500;13.482;2024-01-15T08:14:59;98756.34;;;3.31;71.18
83563;BME280;73535;52.500;13.482;2024-01-15T08:17:25;98744.19;;;3.32;71.42
83563;BME280;73535;52.500;13.482;2024-01-15T08:19:54;98756.69;;;3.27;71.59
83563;BME280;73535;52.500;13.482;2024-01-15T08:22:19;98761.25;;;3.23;71.60
83563;BME280;73535;52.500;13.482;2024-01-15T08:24:45;98765.72;;;3.21;71.58
83563;BME280;73535;52.500;13.482;2024-01-15T08:27:10;98781.31;;;3.21;71.93
83563;BME280;73535;52.500;13.482;2024-01-15T08:29:35;98776.72;;;3.25;71.90
83563;BME280;73535;52.500;13.482;2024-01-15T08:32:01;98774.22;;;3.23;72.04
83563;BME280;73535;52.500;13.482;2024-01-15T08:34:26;98762.38;;;3.32;71.43
83563;BME280;73535;52.500;13.482;2024-01-15T08:36:51;98758.50;;;3.37;71.59
83563;BME280;73535;52.500;13.482;2024-01-15T08:39:16;98758.94;;;3.31;71.63
83563;BME280;73535;52.500;13.482;2024-01-15T08:41:43;98772.03;;;3.30;71.59
83563;BME280;73535;52.500;13.482;2024-01-15T08:44:08;98771.63;;;3.23;72.20
83563;BME280;73535;52.500;13.482;2024-01-15T08:46:33;98777.16;;;3.19;72.23
83563;BME280;73535;52.500;13.482;2024-01-15T08:48:59;98771.00;;;3.20;72.22
83563;BME280;73535;52.500;13.482;2024-01-15T08:51:24;98769.97;;;3.22;72.10
83563;BME280;73535;52.500;13.482;2024-01-15T08:53:49;98775.38;;;3.19;72.10
83563;BME280;73535;52.500;13.482;2024-01-15T08:56:14;98778.66;;;3.34;71.82
83563;BME280;73535;52.500;13.482;2024-01-15T08:58:40;98787.91;;;3.38;71.44
83563;BME280;73535;52.500;13.482;2024-01-15T09:01:05;98771.41;;;3.39;71.47
83563;BME280;73535;52.500;13.482;2024-01-15T09:03:30;98782.84;;;3.36;71.00
83563;BME280;73535;52.500;13.482;2024-01-15T09:05:55;98762.56;;;3.41;71.33
83563;BME280;73535;52.500;13.482;2024-01-15T09:08:21;98772.13;;;3.41;71.15
83563;BME280;73535;52.500;13.482;2024-01-15T09:10:46;98791.94;;;3.42;71.13
83563;BME280;73535;52.500;13.482;2024-01-15T09:13:11;98789.16;;;3.45;71.20
83563;BME280;73535;52.500;13.482;2024-01-15T09:15:36;98783.00;;;3.46;71.52
83563;BME280;73535;52.500;13.482;2024-01-15T09:18:02;98783.53;;;3.51;71.05
83563;BME280;73535;52.500;13.482;2024-01-15T09:20:27;98788.94;;;3.48;71.38
83563;BME280;73535;52.500;13.482;2024-01-15T09:22:53;98801.91;;;3.48;71.32
83563;BME280;73535;52.500;13.482;2024-01-15T09:25:18;98805.53;;;3.46;71.60
83563;BME280;73535;52.500;13.482;2024-01-15T09:27:44;98801.56;;;3.53;71.80
83563;BME280;73535;52.500;13.482;2024-01-15T09:30:09;98819.13;;;3.49;71.44
83563;BME280;73535;52.500;13.482;2024-01-15T09:32:34;98801.78;;;3.50;71.72
83563;BME280;73535;52.500;13.482;2024-01-15T09:35:00;98803.97;;;3.56;71.48
83563;BME280;73535;52.500;13.482;2024-01-15T09:37:25;98814.44;;;3.54;71.41
83563;BME280;73535;52.500;13.482;2024-01-15T09:39:50;98819.53;;;3.56;71.28
83563;BME280;73535;52.500;13.482;2024-01-15T09:42:16;98805.84;;;3.54;70.99
83563;BME280;73535;52.500;13.482;2024-01-15T09:44:41;98798.84;;;3.54;71.45
83563;BME280;73535;52.500;13.482;2024-01-15T09:47:07;98810.81;;;3.57;71.00
83563;BME280;73535;52.500;13.482;2024-01-15T09:49:33;98815.19;;;3.56;71.10
83563;BME280;73535;52.500;13.482;2024-01-15T09:51:58;98803.03;;;3.57;70.85
83563;BME280;73535;52.500;13.482;2024-01-15T09:54:23;98808.75;;;3.49;70.71
83563;BME280;73535;52.500;13.482;2024-01-15T09:56:48;98805.50;;;3.58;70.75
83563;BME280;73535;52.500;13.482;2024-01-15T09:59:17;98802.06;;;3.58;71.16
83563;BME280;73535;52.500;13.482;2024-01-15T10:01:46;98795.66;;;3.51;71.08
83563;BME280;73535;52.500;13.482;2024-01-15T10:04:13;98803.03;;;3.57;71.36
83563;BME280;73535;52.500;13.482;2024-01-15T10:06:42;98782.13;;;3.58;71.07
83563;BME280;73535;52.500;13.482;2024-01-15T10:09:14;98794.56;;;3.66;70.97
83563;BME280;73535;52.500;13.482;2024-01-15T10:11:42;98782.13;;;3.58;71.47
83563;BME280;73535;52.500;13.482;2024-01-15T10:14:12;98790.84;;;3.57;71.11
83563;BME280;73535;52.500;13.482;2024-01-15T10:16:38;98794.81;;;3.63;71.27
83563;BME280;73535;52.500;13.482;2024-01-15T10:19:03;98788.56;;;3.65;70.72
83563;BME280;73535;52.500;13.482;2024-01-15T10:21:32;98787.38;;;3.69;71.00
83563;BME280;73535;52.500;13.482;2024-01-15T10:24:00;98781.13;;;3.72;71.42
83563;BME280;73535;52.500;13.482;2024-01-15T10:26:25;98784.19;;;3.66;70.92
83563;BME280;73535;52.500;13.482;2024-01-15T10:28:51;98779.38;;;3.72;71.27
83563;BME280;73535;52.500;13.482;2024-01-15T10:31:17;98781.25;;;3.70;71.03
83563;BME280;73535;52.500;13.482;2024-01-15T10:33:44;98778.22;;;3.76;70.60
83563;BME280;73535;52.500;13.482;2024-01-15T10:36:09;98781.88;;;3.74;70.63
83563;BME280;73535;52.500;13.482;2024-01-15T10:38:36;98779.38;;;3.72;70.53
83563;BME280;73535;52.500;13.482;2024-01-15T10:41:01;98780.81;;;3.76;70.68
83563;BME280;73535;52.500;13.482;2024-01-15T10:43:26;98766.50;;;3.71;71.12
83563;BME280;73535;52.500;13.482;2024-01-15T10:45:52;98768.91;;;3.74;70.90
83563;BME280;73535;52.500;13.482;2024-01-15T10:48:19;98777.44;;;3.63;70.79
83563;BME280;73535;52.500;13.482;2024-01-15T10:50:45;98770.25;;;3.67;70.66
83563;BME280;73535;52.500;13.482;2024-01-15T10:53:12;98784.09;;;3.67;70.94
83563;BME280;73535;52.500;13.482;2024-01-15T10:55:38;98778.53;;;3.72;70.86
83563;BME280;73535;52.500;13.482;2024-01-15T10:58:07;98795.81;;;3.60;70.80
83563;BME280;73535;52.500;13.482;2024-01-15T11:00:36;98795.34;;;3.55;71.11
83563;BME280;73535;52.500;13.482;2024-01-15T11:03:03;98775.28;;;3.57;70.78
83563;BME280;73535;52.500;13.482;2024-01-15T11:05:33;98778.41;;;3.62;71.14
83563;BME280;73535;52.500;13.482;2024-01-15T11:07:58;98766.13;;;3.64;70.90
83563;BME280;73535;52.500;13.482;2024-01-15T11:10:45;98775.66;;;3.64;70.36
83563;BME280;73535;52.500;13.482;2024-01-15T11:13:19;98771.94;;;3.68;70.35
83563;BME280;73535;52.500;13.482;2024-01-15T11:15:56;98789.13;;;3.81;70.22
83563;BME280;73535;52.500;13.482;2024-01-15T11:18:22;98775.19;;;3.82;69.82
83563;BME280;73535;52.500;13.482;2024-01-15T11:23:48;98777.28;;;3.77;70.00
83563;BME280;73535;52.500;13.482;2024-01-15T11:26:27;98778.22;;;3.76;70.01
83563;BME280;73535;52.500;13.482;2024-01-15T11:28:56;98781.31;;;3.81;70.01
83563;BME280;73535;52.500;13.482;2024-01-15T11:34:08;98793.00;;;3.63;71.00
83563;BME280;73535;52.500;13.482;2024-01-15T11:41:52;98788.34;;;3.68;71.38
83563;BME280;73535;52.500;13.482;2024-01-15T11:44:17;98793.91;;;3.75;71.51
83563;BME280;73535;52.500;13.482;2024-01-15T11:46:57;98798.66;;;3.81;71.42
83563;BME280;73535;52.500;13.482;2024-01-15T11:49:47;98809.34;;;3.65;72.09
83563;BME280;73535;52.500;13.482;2024-01-15T11:52:19;98810.59;;;3.60;72.68
83563;BME280;73535;52.500;13.482;2024-01-15T11:57:41;98810.19;;;3.53;73.73
83563;BME280;73535;52.500;13.482;2024-01-15T12:00:09;98816.38;;;3.39;75.08
83563;BME280;73535;52.500;13.482;2024-01-15T12:02:35;98821.78;;;3.24;76.15
83563;BME280;73535;52.500;13.482;2024-01-15T12:05:00;98827.09;;;3.10;76.79
83563;BME280;73535;52.500;13.482;2024-01-15T12:07:26;98827.50;;;3.04;77.35
83563;BME280;73535;52.500;13.482;2024-01-15T12:09:51;98840.69;;;3.01;77.21
83563;BME280;73535;52.500;13.482;2024-01-15T12:12:28;98828.13;;;2.95;76.72
83563;BME280;73535;52.500;13.482;2024-01-15T12:14:58;98822.63;;;2.99;77.11
83563;BME280;73535;52.500;13.482;2024-01-15T12:17:23;98814.13;;;2.97;77.08
83563;BME280;73535;52.500;13.482;2024-01-15T12:19:48;98827.09;;;2.97;76.86
83563;BME280;73535;52.500;13.482;2024-01-15T12:22:14;98813.38;;;3.08;77.02
83563;BME280;73535;52.500;13.482;2024-01-15T12:24:40;98817.34;;;3.13;76.22
83563;BME280;73535;52.500;13.482;2024-01-15T12:27:06;98823.53;;;3.11;76.14
83563;BME280;73535;52.500;13.482;2024-01-15T12:29:32;98823.47;;;3.12;76.09
83563;BME280;73535;52.500;13.482;2024-01-15T12:31:57;98831.25;;;3.12;75.82
83563;BME280;73535;52.500;13.482;2024-01-15T12:34:22;98817.50;;;3.23;75.48
83563;BME280;73535;52.500;13.482;2024-01-15T12:36:47;98820.94;;;3.11;75.49
83563;BME280;73535;52.500;13.482;2024-01-15T12:39:13;98834.34;;;3.17;75.76
83563;BME280;73535;52.500;13.482;2024-01-15T12:41:38;98830.00;;;3.18;75.43
83563;BME280;73535;52.500;13.482;2024-01-15T12:44:04;98820.94;;;3.23;75.38
83563;BME280;73535;52.500;13.482;2024-01-15T12:46:29;98825.84;;;3.15;75.44
83563;BME280;73535;52.500;13.482;2024-01-15T12:48:56;98827.94;;;3.10;76.21
83563;BME280;73535;52.500;13.482;2024-01-15T12:51:24;98828.34;;;3.04;77.25
83563;BME280;73535;52.500;13.482;2024-01-15T12:53:50;98833.31;;;2.95;78.11
83563;BME280;73535;52.500;13.482;2024-01-15T12:56:16;98840.38;;;2.93;78.47
83563;BME280;73535;52.500;13.482;2024-01-15T12:58:41;98845.97;;;2.87;78.55
83563;BME280;73535;52.500;13.482;2024-01-15T13:01:06;98860.59;;;2.88;78.37
83563;BME280;73535;52.500;13.482;2024-01-15T13:03:32;98858.94;;;2.87;78.79
83563;BME280;73535;52.500;13.482;2024-01-15T13:05:57;98864.22;;;2.85;78.32